Amory, Mississippi
Current Conditions -  °F | °C
As of 4:35 PM on Saturday 25 Oct 2014 (Local Time) from KM40 Reporting Station
Haze Haze  
Wind Chill: 84°   Ceiling: 500
Heat Index: 86°   Visibility: 0.75mi
Dew Point: 66°   Wind: 5mph
Humidity: 55%   Direction: 260°W
Pressure: 30.05"   Gusts: NA
Location:  33.99°N, 88.49°W
Report Text: KM40 252135Z AUTO 26004KT 3/4SM HZ VV005 29/19 A3005 RMK AO2
Loading
Personal Weather Stations






























Interactive Weather Map New forecast layout! Learn more

10-Day Weather Forecast

Advertisements
Track Severe Weather on mobile